sensor_id;sensor_type;location;lat;lon;timestamp;P1;durP1;ratioP1;P2;durP2;ratioP2
57778;SDS011;43608;49.486;9.640;2022-09-20T00:00:06;1.45;;;1.30;;
57778;SDS011;43608;49.486;9.640;2022-09-20T00:00:38;1.45;;;1.35;;
57778;SDS011;43608;49.486;9.640;2022-09-20T00:01:10;1.88;;;1.20;;
57778;SDS011;43608;49.486;9.640;2022-09-20T00:01:42;1.83;;;1.30;;
57778;SDS011;43608;49.486;9.640;2022-09-20T00:02:15;1.65;;;1.30;;
57778;SDS011;43608;49.486;9.640;2022-09-20T00:02:45;1.10;;;1.10;;
57778;SDS011;43608;49.486;9.640;2022-09-20T00:03:16;1.55;;;1.40;;
57778;SDS011;43608;49.486;9.640;2022-09-20T00:03:48;1.50;;;1.33;;
57778;SDS011;43608;49.486;9.640;2022-09-20T00:04:20;1.52;;;1.33;;
57778;SDS011;43608;49.486;9.640;2022-09-20T00:04:50;1.30;;;1.20;;
57778;SDS011;43608;49.486;9.640;2022-09-20T00:05:21;1.30;;;1.20;;
57778;SDS011;43608;49.486;9.640;2022-09-20T00:05:51;1.98;;;1.40;;
57778;SDS011;43608;49.486;9.640;2022-09-20T00:06:28;1.60;;;1.33;;
57778;SDS011;43608;49.486;9.640;2022-09-20T00:06:59;2.25;;;1.60;;
57778;SDS011;43608;49.486;9.640;2022-09-20T00:07:29;1.30;;;1.20;;
57778;SDS011;43608;49.486;9.640;2022-09-20T00:08:00;1.40;;;1.30;;
57778;SDS011;43608;49.486;9.640;2022-09-20T00:08:34;1.40;;;1.30;;
57778;SDS011;43608;49.486;9.640;2022-09-20T00:09:05;1.42;;;1.33;;
57778;SDS011;43608;49.486;9.640;2022-09-20T00:09:36;1.20;;;1.20;;
57778;SDS011;43608;49.486;9.640;2022-09-20T00:10:06;1.30;;;1.20;;
57778;SDS011;43608;49.486;9.640;2022-09-20T00:10:37;1.30;;;1.20;;
57778;SDS011;43608;49.486;9.640;2022-09-20T00:11:09;1.23;;;1.20;;
57778;SDS011;43608;49.486;9.640;2022-09-20T00:11:44;1.55;;;1.40;;
57778;SDS011;43608;49.486;9.640;2022-09-20T00:12:14;1.30;;;1.20;;
57778;SDS011;43608;49.486;9.640;2022-09-20T00:12:45;1.20;;;1.10;;
57778;SDS011;43608;49.486;9.640;2022-09-20T00:13:17;1.90;;;1.30;;
57778;SDS011;43608;49.486;9.640;2022-09-20T00:13:48;1.40;;;1.30;;
57778;SDS011;43608;49.486;9.640;2022-09-20T00:14:20;1.27;;;1.17;;
57778;SDS011;43608;49.486;9.640;2022-09-20T00:14:50;1.50;;;1.30;;
57778;SDS011;43608;49.486;9.640;2022-09-20T00:15:21;1.30;;;1.20;;
57778;SDS011;43608;49.486;9.640;2022-09-20T00:15:51;1.40;;;1.30;;
57778;SDS011;43608;49.486;9.640;2022-09-20T00:16:23;1.40;;;1.30;;
57778;SDS011;43608;49.486;9.640;2022-09-20T00:16:59;1.15;;;1.10;;
57778;SDS011;43608;49.486;9.640;2022-09-20T00:17:29;1.20;;;1.10;;
57778;SDS011;43608;49.486;9.640;2022-09-20T00:17:59;1.27;;;1.10;;
57778;SDS011;43608;49.486;9.640;2022-09-20T00:18:30;1.30;;;1.20;;
57778;SDS011;43608;49.486;9.640;2022-09-20T00:19:01;1.30;;;1.20;;
57778;SDS011;43608;49.486;9.640;2022-09-20T00:19:32;1.00;;;1.00;;
57778;SDS011;43608;49.486;9.640;2022-09-20T00:20:03;1.30;;;1.20;;
57778;SDS011;43608;49.486;9.640;2022-09-20T00:20:34;2.13;;;1.45;;
57778;SDS011;43608;49.486;9.640;2022-09-20T00:21:04;1.30;;;1.20;;
57778;SDS011;43608;49.486;9.640;2022-09-20T00:21:35;1.25;;;1.15;;
57778;SDS011;43608;49.486;9.640;2022-09-20T00:22:06;1.20;;;1.10;;
57778;SDS011;43608;49.486;9.640;2022-09-20T00:22:37;1.48;;;1.20;;
57778;SDS011;43608;49.486;9.640;2022-09-20T00:23:07;1.48;;;1.38;;
57778;SDS011;43608;49.486;9.640;2022-09-20T00:23:37;1.10;;;1.10;;
57778;SDS011;43608;49.486;9.640;2022-09-20T00:24:08;1.33;;;1.23;;
57778;SDS011;43608;49.486;9.640;2022-09-20T00:24:39;1.30;;;1.20;;
57778;SDS011;43608;49.486;9.640;2022-09-20T00:25:10;1.20;;;1.20;;
57778;SDS011;43608;49.486;9.640;2022-09-20T00:25:40;1.33;;;1.23;;
57778;SDS011;43608;49.486;9.640;2022-09-20T00:26:11;4.25;;;1.38;;
57778;SDS011;43608;49.486;9.640;2022-09-20T00:26:42;1.13;;;1.13;;
57778;SDS011;43608;49.486;9.640;2022-09-20T00:27:13;1.60;;;1.30;;
57778;SDS011;43608;49.486;9.640;2022-09-20T00:27:43;1.05;;;1.05;;
57778;SDS011;43608;49.486;9.640;2022-09-20T00:28:14;1.35;;;1.25;;
57778;SDS011;43608;49.486;9.640;2022-09-20T00:28:45;1.10;;;1.10;;
57778;SDS011;43608;49.486;9.640;2022-09-20T00:29:18;1.40;;;1.30;;
57778;SDS011;43608;49.486;9.640;2022-09-20T00:29:48;1.60;;;1.40;;
57778;SDS011;43608;49.486;9.640;2022-09-20T00:30:19;1.40;;;1.30;;
57778;SDS011;43608;49.486;9.640;2022-09-20T00:30:50;1.65;;;1.27;;
57778;SDS011;43608;49.486;9.640;2022-09-20T00:31:22;1.25;;;1.17;;
57778;SDS011;43608;49.486;9.640;2022-09-20T00:31:52;1.45;;;1.35;;
57778;SDS011;43608;49.486;9.640;2022-09-20T00:32:23;1.48;;;1.38;;
57778;SDS011;43608;49.486;9.640;2022-09-20T00:32:53;1.20;;;1.10;;
57778;SDS011;43608;49.486;9.640;2022-09-20T00:33:24;1.30;;;1.20;;
57778;SDS011;43608;49.486;9.640;2022-09-20T00:34:17;1.25;;;1.20;;
57778;SDS011;43608;49.486;9.640;2022-09-20T00:35:06;1.92;;;1.33;;
57778;SDS011;43608;49.486;9.640;2022-09-20T00:35:41;1.05;;;1.05;;
57778;SDS011;43608;49.486;9.640;2022-09-20T00:36:12;1.30;;;1.20;;
57778;SDS011;43608;49.486;9.640;2022-09-20T00:36:43;1.85;;;1.40;;
57778;SDS011;43608;49.486;9.640;2022-09-20T00:37:13;1.63;;;1.20;;
57778;SDS011;43608;49.486;9.640;2022-09-20T00:37:44;1.27;;;1.15;;
57778;SDS011;43608;49.486;9.640;2022-09-20T00:38:14;0.95;;;0.95;;
57778;SDS011;43608;49.486;9.640;2022-09-20T00:38:45;1.30;;;1.20;;
57778;SDS011;43608;49.486;9.640;2022-09-20T00:39:16;1.42;;;1.27;;
57778;SDS011;43608;49.486;9.640;2022-09-20T00:39:46;1.27;;;1.17;;
57778;SDS011;43608;49.486;9.640;2022-09-20T00:40:18;1.10;;;1.08;;
57778;SDS011;43608;49.486;9.640;2022-09-20T00:40:50;1.30;;;1.20;;
57778;SDS011;43608;49.486;9.640;2022-09-20T00:41:20;1.40;;;1.30;;
57778;SDS011;43608;49.486;9.640;2022-09-20T00:41:50;1.23;;;1.10;;
57778;SDS011;43608;49.486;9.640;2022-09-20T00:42:25;1.30;;;1.20;;
57778;SDS011;43608;49.486;9.640;2022-09-20T00:42:57;1.70;;;1.30;;
57778;SDS011;43608;49.486;9.640;2022-09-20T00:43:37;1.25;;;1.15;;
57778;SDS011;43608;49.486;9.640;2022-09-20T00:45:26;1.45;;;1.10;;
57778;SDS011;43608;49.486;9.640;2022-09-20T00:45:58;1.20;;;1.10;;
57778;SDS011;43608;49.486;9.640;2022-09-20T00:47:03;1.30;;;1.20;;
57778;SDS011;43608;49.486;9.640;2022-09-20T00:47:37;1.25;;;1.23;;
57778;SDS011;43608;49.486;9.640;2022-09-20T00:48:21;1.40;;;1.30;;
57778;SDS011;43608;49.486;9.640;2022-09-20T00:48:58;1.20;;;1.10;;
57778;SDS011;43608;49.486;9.640;2022-09-20T00:49:43;1.05;;;1.05;;
57778;SDS011;43608;49.486;9.640;2022-09-20T00:51:09;1.20;;;1.10;;
57778;SDS011;43608;49.486;9.640;2022-09-20T00:51:44;1.52;;;1.30;;
57778;SDS011;43608;49.486;9.640;2022-09-20T00:52:20;1.10;;;1.10;;
57778;SDS011;43608;49.486;9.640;2022-09-20T00:52:53;1.25;;;1.15;;
57778;SDS011;43608;49.486;9.640;2022-09-20T00:53:33;1.30;;;1.20;;
57778;SDS011;43608;49.486;9.640;2022-09-20T00:54:09;1.40;;;1.30;;
57778;SDS011;43608;49.486;9.640;2022-09-20T00:54:43;1.17;;;1.08;;
57778;SDS011;43608;49.486;9.640;2022-09-20T00:55:14;1.40;;;1.30;;
57778;SDS011;43608;49.486;9.640;2022-09-20T00:55:46;1.20;;;1.20;;
57778;SDS011;43608;49.486;9.640;2022-09-20T00:56:26;1.00;;;1.00;;
57778;SDS011;43608;49.486;9.640;2022-09-20T00:57:03;1.23;;;1.10;;
57778;SDS011;43608;49.486;9.640;2022-09-20T00:57:34;1.50;;;1.23;;
57778;SDS011;43608;49.486;9.640;2022-09-20T00:58:07;1.23;;;1.20;;
57778;SDS011;43608;49.486;9.640;2022-09-20T00:58:44;1.38;;;1.17;;
57778;SDS011;43608;49.486;9.640;2022-09-20T00:59:33;1.42;;;1.10;;
57778;SDS011;43608;49.486;9.640;2022-09-20T01:00:08;1.27;;;1.17;;
57778;SDS011;43608;49.486;9.640;2022-09-20T01:00:40;1.45;;;1.33;;
57778;SDS011;43608;49.486;9.640;2022-09-20T01:01:13;1.30;;;1.17;;
57778;SDS011;43608;49.486;9.640;2022-09-20T01:01:45;1.23;;;1.20;;
57778;SDS011;43608;49.486;9.640;2022-09-20T01:02:25;1.30;;;1.20;;
57778;SDS011;43608;49.486;9.640;2022-09-20T01:03:00;1.65;;;1.40;;
57778;SDS011;43608;49.486;9.640;2022-09-20T01:03:35;1.10;;;1.00;;
57778;SDS011;43608;49.486;9.640;2022-09-20T01:04:07;1.30;;;1.20;;
57778;SDS011;43608;49.486;9.640;2022-09-20T01:04:38;1.40;;;1.30;;
57778;SDS011;43608;49.486;9.640;2022-09-20T01:05:11;1.23;;;1.20;;
57778;SDS011;43608;49.486;9.640;2022-09-20T01:05:43;1.83;;;1.52;;
57778;SDS011;43608;49.486;9.640;2022-09-20T01:06:14;1.58;;;1.30;;
57778;SDS011;43608;49.486;9.640;2022-09-20T01:06:46;1.30;;;1.20;;
57778;SDS011;43608;49.486;9.640;2022-09-20T01:07:19;1.27;;;1.17;;
57778;SDS011;43608;49.486;9.640;2022-09-20T01:07:51;1.63;;;1.30;;
57778;SDS011;43608;49.486;9.640;2022-09-20T01:08:23;2.08;;;1.27;;
57778;SDS011;43608;49.486;9.640;2022-09-20T01:08:55;1.40;;;1.30;;
57778;SDS011;43608;49.486;9.640;2022-09-20T01:09:31;2.33;;;1.25;;
57778;SDS011;43608;49.486;9.640;2022-09-20T01:10:01;2.47;;;1.27;;
57778;SDS011;43608;49.486;9.640;2022-09-20T01:10:32;1.50;;;1.40;;
57778;SDS011;43608;49.486;9.640;2022-09-20T01:11:03;1.35;;;1.25;;
57778;SDS011;43608;49.486;9.640;2022-09-20T01:11:33;1.42;;;1.10;;
57778;SDS011;43608;49.486;9.640;2022-09-20T01:12:06;1.30;;;1.20;;
57778;SDS011;43608;49.486;9.640;2022-09-20T01:12:42;1.40;;;1.30;;
57778;SDS011;43608;49.486;9.640;2022-09-20T01:13:15;1.35;;;1.25;;
57778;SDS011;43608;49.486;9.640;2022-09-20T01:13:45;1.00;;;1.00;;
57778;SDS011;43608;49.486;9.640;2022-09-20T01:14:15;1.20;;;1.10;;
57778;SDS011;43608;49.486;9.640;2022-09-20T01:14:49;1.40;;;1.30;;
57778;SDS011;43608;49.486;9.640;2022-09-20T01:15:21;1.33;;;1.15;;
57778;SDS011;43608;49.486;9.640;2022-09-20T01:15:54;1.30;;;1.20;;
57778;SDS011;43608;49.486;9.640;2022-09-20T01:16:28;1.13;;;1.13;;
57778;SDS011;43608;49.486;9.640;2022-09-20T01:17:01;1.58;;;1.23;;
57778;SDS011;43608;49.486;9.640;2022-09-20T01:17:35;1.48;;;1.30;;
57778;SDS011;43608;49.486;9.640;2022-09-20T01:18:08;2.15;;;1.30;;
57778;SDS011;43608;49.486;9.640;2022-09-20T01:18:40;1.67;;;1.40;;
57778;SDS011;43608;49.486;9.640;2022-09-20T01:19:18;1.42;;;1.33;;
57778;SDS011;43608;49.486;9.640;2022-09-20T01:20:44;2.15;;;1.23;;
57778;SDS011;43608;49.486;9.640;2022-09-20T01:21:17;1.50;;;1.40;;
57778;SDS011;43608;49.486;9.640;2022-09-20T01:21:48;1.50;;;1.40;;
57778;SDS011;43608;49.486;9.640;2022-09-20T01:22:24;1.30;;;1.20;;
57778;SDS011;43608;49.486;9.640;2022-09-20T01:26:36;1.30;;;1.20;;
57778;SDS011;43608;49.486;9.640;2022-09-20T01:27:10;1.67;;;1.17;;
57778;SDS011;43608;49.486;9.640;2022-09-20T01:27:50;1.40;;;1.30;;
57778;SDS011;43608;49.486;9.640;2022-09-20T01:28:22;1.30;;;1.20;;
57778;SDS011;43608;49.486;9.640;2022-09-20T01:29:05;1.30;;;1.20;;
57778;SDS011;43608;49.486;9.640;2022-09-20T01:30:40;1.40;;;1.30;;
57778;SDS011;43608;49.486;9.640;2022-09-20T01:31:24;1.10;;;1.10;;
57778;SDS011;43608;49.486;9.640;2022-09-20T01:31:59;1.10;;;1.10;;
57778;SDS011;43608;49.486;9.640;2022-09-20T01:32:34;1.75;;;1.20;;
57778;SDS011;43608;49.486;9.640;2022-09-20T01:34:14;1.40;;;1.30;;
57778;SDS011;43608;49.486;9.640;2022-09-20T01:34:54;1.63;;;1.25;;
57778;SDS011;43608;49.486;9.640;2022-09-20T01:35:29;1.30;;;1.20;;
57778;SDS011;43608;49.486;9.640;2022-09-20T01:36:03;1.10;;;1.10;;
57778;SDS011;43608;49.486;9.640;2022-09-20T01:36:39;1.40;;;1.30;;
57778;SDS011;43608;49.486;9.640;2022-09-20T01:37:30;1.20;;;1.20;;
57778;SDS011;43608;49.486;9.640;2022-09-20T01:39:40;1.20;;;1.10;;
57778;SDS011;43608;49.486;9.640;2022-09-20T01:40:30;1.20;;;1.10;;
57778;SDS011;43608;49.486;9.640;2022-09-20T01:42:05;1.35;;;1.25;;
57778;SDS011;43608;49.486;9.640;2022-09-20T01:42:41;1.10;;;1.10;;
57778;SDS011;43608;49.486;9.640;2022-09-20T01:45:58;1.40;;;1.30;;
57778;SDS011;43608;49.486;9.640;2022-09-20T01:46:49;1.30;;;1.20;;
57778;SDS011;43608;49.486;9.640;2022-09-20T01:48:36;1.40;;;1.30;;
57778;SDS011;43608;49.486;9.640;2022-09-20T01:56:34;1.10;;;1.10;;
57778;SDS011;43608;49.486;9.640;2022-09-20T02:00:12;1.30;;;1.20;;
57778;SDS011;43608;49.486;9.640;2022-09-20T02:02:13;1.10;;;1.10;;
57778;SDS011;43608;49.486;9.640;2022-09-20T02:08:29;1.42;;;1.20;;
57778;SDS011;43608;49.486;9.640;2022-09-20T02:12:21;1.20;;;1.20;;
57778;SDS011;43608;49.486;9.640;2022-09-20T02:13:03;1.40;;;1.30;;
57778;SDS011;43608;49.486;9.640;2022-09-20T02:15:20;1.90;;;1.35;;
57778;SDS011;43608;49.486;9.640;2022-09-20T02:17:54;1.30;;;1.15;;
57778;SDS011;43608;49.486;9.640;2022-09-20T02:21:41;3.13;;;1.52;;
57778;SDS011;43608;49.486;9.640;2022-09-20T02:25:54;1.30;;;1.20;;
57778;SDS011;43608;49.486;9.640;2022-09-20T02:26:40;1.13;;;1.02;;
57778;SDS011;43608;49.486;9.640;2022-09-20T02:33:16;1.00;;;1.00;;
57778;SDS011;43608;49.486;9.640;2022-09-20T02:35:38;1.20;;;1.10;;
57778;SDS011;43608;49.486;9.640;2022-09-20T02:39:15;1.20;;;1.10;;
57778;SDS011;43608;49.486;9.640;2022-09-20T02:40:31;1.30;;;1.20;;
57778;SDS011;43608;49.486;9.640;2022-09-20T02:42:08;1.33;;;1.23;;
57778;SDS011;43608;49.486;9.640;2022-09-20T02:44:57;1.23;;;1.13;;
57778;SDS011;43608;49.486;9.640;2022-09-20T02:45:38;2.13;;;1.20;;
57778;SDS011;43608;49.486;9.640;2022-09-20T02:46:44;1.20;;;1.20;;
57778;SDS011;43608;49.486;9.640;2022-09-20T02:47:55;1.35;;;1.25;;
57778;SDS011;43608;49.486;9.640;2022-09-20T02:48:34;1.30;;;1.20;;
57778;SDS011;43608;49.486;9.640;2022-09-20T02:52:19;1.40;;;1.30;;
57778;SDS011;43608;49.486;9.640;2022-09-20T02:55:43;1.42;;;1.30;;
57778;SDS011;43608;49.486;9.640;2022-09-20T02:56:37;1.40;;;1.30;;
57778;SDS011;43608;49.486;9.640;2022-09-20T03:00:04;1.50;;;1.30;;
57778;SDS011;43608;49.486;9.640;2022-09-20T03:00:44;1.60;;;1.50;;
57778;SDS011;43608;49.486;9.640;2022-09-20T03:02:00;1.40;;;1.30;;
57778;SDS011;43608;49.486;9.640;2022-09-20T03:03:46;1.40;;;1.30;;
57778;SDS011;43608;49.486;9.640;2022-09-20T03:05:26;1.50;;;1.40;;
57778;SDS011;43608;49.486;9.640;2022-09-20T03:06:07;1.65;;;1.30;;
57778;SDS011;43608;49.486;9.640;2022-09-20T03:08:28;1.60;;;1.30;;
57778;SDS011;43608;49.486;9.640;2022-09-20T03:09:12;1.60;;;1.50;;
57778;SDS011;43608;49.486;9.640;2022-09-20T03:10:49;1.40;;;1.30;;
57778;SDS011;43608;49.486;9.640;2022-09-20T03:11:56;1.50;;;1.40;;
57778;SDS011;43608;49.486;9.640;2022-09-20T03:14:30;1.42;;;1.30;;
57778;SDS011;43608;49.486;9.640;2022-09-20T03:17:16;1.63;;;1.33;;
57778;SDS011;43608;49.486;9.640;2022-09-20T03:19:32;1.50;;;1.38;;
57778;SDS011;43608;49.486;9.640;2022-09-20T03:27:04;1.67;;;1.50;;
57778;SDS011;43608;49.486;9.640;2022-09-20T03:29:21;1.42;;;1.33;;
57778;SDS011;43608;49.486;9.640;2022-09-20T03:31:09;1.35;;;1.30;;
57778;SDS011;43608;49.486;9.640;2022-09-20T03:33:54;1.77;;;1.50;;
57778;SDS011;43608;49.486;9.640;2022-09-20T03:37:07;1.90;;;1.40;;
57778;SDS011;43608;49.486;9.640;2022-09-20T03:39:28;2.03;;;1.40;;
57778;SDS011;43608;49.486;9.640;2022-09-20T03:42:01;1.52;;;1.40;;
57778;SDS011;43608;49.486;9.640;2022-09-20T03:42:50;1.73;;;1.38;;
57778;SDS011;43608;49.486;9.640;2022-09-20T03:47:01;1.70;;;1.40;;
57778;SDS011;43608;49.486;9.640;2022-09-20T03:52:59;1.50;;;1.40;;
57778;SDS011;43608;49.486;9.640;2022-09-20T03:54:44;2.05;;;1.67;;
57778;SDS011;43608;49.486;9.640;2022-09-20T03:55:31;1.50;;;1.40;;
57778;SDS011;43608;49.486;9.640;2022-09-20T03:56:45;1.50;;;1.40;;
57778;SDS011;43608;49.486;9.640;2022-09-20T03:59:28;1.63;;;1.50;;
57778;SDS011;43608;49.486;9.640;2022-09-20T04:00:59;1.60;;;1.50;;
57778;SDS011;43608;49.486;9.640;2022-09-20T04:03:02;1.50;;;1.40;;
57778;SDS011;43608;49.486;9.640;2022-09-20T04:07:20;1.80;;;1.50;;
57778;SDS011;43608;49.486;9.640;2022-09-20T04:10:52;1.90;;;1.48;;
57778;SDS011;43608;49.486;9.640;2022-09-20T04:11:39;1.23;;;1.17;;
57778;SDS011;43608;49.486;9.640;2022-09-20T04:14:52;1.80;;;1.40;;
57778;SDS011;43608;49.486;9.640;2022-09-20T04:15:07;1.50;;;1.40;;
57778;SDS011;43608;49.486;9.640;2022-09-20T04:16:54;1.52;;;1.42;;
57778;SDS011;43608;49.486;9.640;2022-09-20T04:19:23;2.65;;;1.50;;
57778;SDS011;43608;49.486;9.640;2022-09-20T04:20:14;1.70;;;1.50;;
57778;SDS011;43608;49.486;9.640;2022-09-20T04:20:55;1.45;;;1.23;;
57778;SDS011;43608;49.486;9.640;2022-09-20T04:21:33;1.45;;;1.35;;
57778;SDS011;43608;49.486;9.640;2022-09-20T04:22:08;1.63;;;1.52;;
57778;SDS011;43608;49.486;9.640;2022-09-20T04:22:39;1.60;;;1.50;;
57778;SDS011;43608;49.486;9.640;2022-09-20T04:23:29;1.40;;;1.30;;
57778;SDS011;43608;49.486;9.640;2022-09-20T04:25:43;1.75;;;1.48;;
57778;SDS011;43608;49.486;9.640;2022-09-20T04:26:30;2.60;;;1.52;;
57778;SDS011;43608;49.486;9.640;2022-09-20T04:27:04;1.60;;;1.50;;
57778;SDS011;43608;49.486;9.640;2022-09-20T04:27:44;1.55;;;1.45;;
57778;SDS011;43608;49.486;9.640;2022-09-20T04:28:24;2.15;;;1.50;;
57778;SDS011;43608;49.486;9.640;2022-09-20T04:30:37;2.28;;;1.70;;
57778;SDS011;43608;49.486;9.640;2022-09-20T04:32:00;1.88;;;1.55;;
57778;SDS011;43608;49.486;9.640;2022-09-20T04:33:02;2.83;;;1.63;;
57778;SDS011;43608;49.486;9.640;2022-09-20T04:33:35;2.63;;;1.80;;
57778;SDS011;43608;49.486;9.640;2022-09-20T04:34:15;3.08;;;1.95;;
57778;SDS011;43608;49.486;9.640;2022-09-20T04:37:01;1.98;;;1.60;;
57778;SDS011;43608;49.486;9.640;2022-09-20T04:37:46;1.65;;;1.55;;
57778;SDS011;43608;49.486;9.640;2022-09-20T04:38:18;1.70;;;1.60;;
57778;SDS011;43608;49.486;9.640;2022-09-20T04:38:52;1.70;;;1.60;;
57778;SDS011;43608;49.486;9.640;2022-09-20T04:40:14;2.13;;;1.80;;
57778;SDS011;43608;49.486;9.640;2022-09-20T04:44:50;2.08;;;1.80;;
57778;SDS011;43608;49.486;9.640;2022-09-20T04:49:27;2.45;;;1.92;;
57778;SDS011;43608;49.486;9.640;2022-09-20T04:56:03;2.38;;;2.13;;
57778;SDS011;43608;49.486;9.640;2022-09-20T04:59:07;2.70;;;1.70;;
57778;SDS011;43608;49.486;9.640;2022-09-20T05:02:28;3.13;;;1.70;;
57778;SDS011;43608;49.486;9.640;2022-09-20T05:16:55;2.90;;;2.20;;
57778;SDS011;43608;49.486;9.640;2022-09-20T05:21:22;3.00;;;2.20;;
57778;SDS011;43608;49.486;9.640;2022-09-20T05:25:13;3.60;;;1.90;;
57778;SDS011;43608;49.486;9.640;2022-09-20T05:29:27;2.40;;;1.85;;
57778;SDS011;43608;49.486;9.640;2022-09-20T05:30:45;1.85;;;1.70;;
57778;SDS011;43608;49.486;9.640;2022-09-20T05:33:13;2.15;;;1.80;;
57778;SDS011;43608;49.486;9.640;2022-09-20T05:33:49;2.42;;;1.83;;
57778;SDS011;43608;49.486;9.640;2022-09-20T05:34:42;2.55;;;2.00;;
57778;SDS011;43608;49.486;9.640;2022-09-20T05:35:25;3.08;;;2.28;;
57778;SDS011;43608;49.486;9.640;2022-09-20T05:36:48;4.22;;;2.70;;
57778;SDS011;43608;49.486;9.640;2022-09-20T05:39:22;3.35;;;2.40;;
57778;SDS011;43608;49.486;9.640;2022-09-20T05:40:12;3.33;;;2.33;;
57778;SDS011;43608;49.486;9.640;2022-09-20T05:41:46;2.40;;;2.08;;
57778;SDS011;43608;49.486;9.640;2022-09-20T05:44:03;2.38;;;2.00;;
57778;SDS011;43608;49.486;9.640;2022-09-20T05:46:49;2.35;;;1.90;;
57778;SDS011;43608;49.486;9.640;2022-09-20T05:47:55;2.08;;;1.80;;
57778;SDS011;43608;49.486;9.640;2022-09-20T05:55:15;2.00;;;1.70;;
57778;SDS011;43608;49.486;9.640;2022-09-20T05:56:03;2.78;;;1.60;;
57778;SDS011;43608;49.486;9.640;2022-09-20T05:56:55;2.10;;;1.70;;
57778;SDS011;43608;49.486;9.640;2022-09-20T06:00:24;1.83;;;1.65;;
57778;SDS011;43608;49.486;9.640;2022-09-20T06:01:01;2.75;;;1.70;;
57778;SDS011;43608;49.486;9.640;2022-09-20T06:01:40;2.35;;;1.70;;
57778;SDS011;43608;49.486;9.640;2022-09-20T06:04:18;2.08;;;1.88;;
57778;SDS011;43608;49.486;9.640;2022-09-20T06:05:28;3.83;;;2.00;;
57778;SDS011;43608;49.486;9.640;2022-09-20T06:06:09;2.10;;;1.80;;
57778;SDS011;43608;49.486;9.640;2022-09-20T06:07:01;2.60;;;1.83;;
57778;SDS011;43608;49.486;9.640;2022-09-20T06:09:15;2.75;;;1.88;;
57778;SDS011;43608;49.486;9.640;2022-09-20T06:12:25;3.03;;;1.90;;
57778;SDS011;43608;49.486;9.640;2022-09-20T06:15:41;2.47;;;1.73;;
57778;SDS011;43608;49.486;9.640;2022-09-20T06:17:33;2.92;;;1.77;;
57778;SDS011;43608;49.486;9.640;2022-09-20T06:18:22;3.00;;;1.80;;
57778;SDS011;43608;49.486;9.640;2022-09-20T06:21:18;2.13;;;1.65;;
57778;SDS011;43608;49.486;9.640;2022-09-20T06:22:30;2.97;;;1.83;;
57778;SDS011;43608;49.486;9.640;2022-09-20T06:23:14;2.00;;;1.80;;
57778;SDS011;43608;49.486;9.640;2022-09-20T06:23:45;2.95;;;1.90;;
57778;SDS011;43608;49.486;9.640;2022-09-20T06:24:22;2.90;;;1.80;;
57778;SDS011;43608;49.486;9.640;2022-09-20T06:25:02;2.90;;;1.80;;
57778;SDS011;43608;49.486;9.640;2022-09-20T06:26:30;2.92;;;2.03;;
57778;SDS011;43608;49.486;9.640;2022-09-20T06:26:46;3.22;;;1.90;;
57778;SDS011;43608;49.486;9.640;2022-09-20T06:27:23;3.60;;;1.75;;
57778;SDS011;43608;49.486;9.640;2022-09-20T06:28:18;2.53;;;1.80;;
57778;SDS011;43608;49.486;9.640;2022-09-20T06:28:51;3.03;;;1.92;;
57778;SDS011;43608;49.486;9.640;2022-09-20T06:29:28;3.55;;;1.95;;
57778;SDS011;43608;49.486;9.640;2022-09-20T06:30:03;1.98;;;1.70;;
57778;SDS011;43608;49.486;9.640;2022-09-20T06:30:50;2.42;;;1.80;;
57778;SDS011;43608;49.486;9.640;2022-09-20T06:31:22;4.05;;;1.83;;
57778;SDS011;43608;49.486;9.640;2022-09-20T06:31:52;2.85;;;2.10;;
57778;SDS011;43608;49.486;9.640;2022-09-20T06:32:23;2.65;;;1.92;;
57778;SDS011;43608;49.486;9.640;2022-09-20T06:32:54;2.20;;;2.00;;
57778;SDS011;43608;49.486;9.640;2022-09-20T06:33:26;3.53;;;2.03;;
57778;SDS011;43608;49.486;9.640;2022-09-20T06:33:59;3.42;;;2.03;;
57778;SDS011;43608;49.486;9.640;2022-09-20T06:34:34;2.90;;;1.90;;
57778;SDS011;43608;49.486;9.640;2022-09-20T06:35:05;2.33;;;1.83;;
57778;SDS011;43608;49.486;9.640;2022-09-20T06:35:36;2.92;;;2.00;;
57778;SDS011;43608;49.486;9.640;2022-09-20T06:37:18;2.70;;;2.10;;
57778;SDS011;43608;49.486;9.640;2022-09-20T06:39:56;3.13;;;2.08;;
57778;SDS011;43608;49.486;9.640;2022-09-20T06:40:47;2.97;;;2.10;;
57778;SDS011;43608;49.486;9.640;2022-09-20T06:41:38;2.72;;;1.95;;
57778;SDS011;43608;49.486;9.640;2022-09-20T06:42:09;3.47;;;2.13;;
57778;SDS011;43608;49.486;9.640;2022-09-20T06:42:40;3.85;;;2.10;;
57778;SDS011;43608;49.486;9.640;2022-09-20T06:43:13;2.60;;;2.13;;
57778;SDS011;43608;49.486;9.640;2022-09-20T06:43:43;3.42;;;2.22;;
57778;SDS011;43608;49.486;9.640;2022-09-20T06:44:14;2.72;;;2.10;;
57778;SDS011;43608;49.486;9.640;2022-09-20T06:44:45;3.03;;;2.10;;
57778;SDS011;43608;49.486;9.640;2022-09-20T06:45:16;3.00;;;2.03;;
57778;SDS011;43608;49.486;9.640;2022-09-20T06:45:46;2.38;;;1.90;;
57778;SDS011;43608;49.486;9.640;2022-09-20T06:46:17;2.42;;;1.88;;
57778;SDS011;43608;49.486;9.640;2022-09-20T06:46:48;2.85;;;2.08;;
57778;SDS011;43608;49.486;9.640;2022-09-20T06:47:22;3.25;;;2.08;;
57778;SDS011;43608;49.486;9.640;2022-09-20T06:47:52;4.47;;;2.15;;
57778;SDS011;43608;49.486;9.640;2022-09-20T06:48:23;3.13;;;2.10;;
57778;SDS011;43608;49.486;9.640;2022-09-20T06:48:54;2.70;;;2.10;;
57778;SDS011;43608;49.486;9.640;2022-09-20T06:49:25;3.72;;;2.10;;
57778;SDS011;43608;49.486;9.640;2022-09-20T06:49:58;2.70;;;2.05;;
57778;SDS011;43608;49.486;9.640;2022-09-20T06:50:29;2.90;;;2.10;;
57778;SDS011;43608;49.486;9.640;2022-09-20T06:50:59;3.45;;;2.00;;
57778;SDS011;43608;49.486;9.640;2022-09-20T06:51:34;3.40;;;2.22;;
57778;SDS011;43608;49.486;9.640;2022-09-20T06:52:06;2.47;;;1.80;;
57778;SDS011;43608;49.486;9.640;2022-09-20T06:52:42;2.92;;;1.80;;
57778;SDS011;43608;49.486;9.640;2022-09-20T06:53:15;3.28;;;2.05;;
57778;SDS011;43608;49.486;9.640;2022-09-20T06:53:56;3.08;;;2.03;;
57778;SDS011;43608;49.486;9.640;2022-09-20T06:54:26;3.28;;;1.90;;
57778;SDS011;43608;49.486;9.640;2022-09-20T06:54:56;3.13;;;1.85;;
57778;SDS011;43608;49.486;9.640;2022-09-20T06:55:29;3.08;;;1.90;;
57778;SDS011;43608;49.486;9.640;2022-09-20T06:56:07;3.58;;;2.00;;
57778;SDS011;43608;49.486;9.640;2022-09-20T06:56:42;3.10;;;1.90;;
57778;SDS011;43608;49.486;9.640;2022-09-20T06:57:14;2.83;;;1.92;;
57778;SDS011;43608;49.486;9.640;2022-09-20T06:57:47;3.67;;;2.00;;
57778;SDS011;43608;49.486;9.640;2022-09-20T06:58:17;4.13;;;2.20;;
57778;SDS011;43608;49.486;9.640;2022-09-20T06:58:48;3.78;;;2.10;;
57778;SDS011;43608;49.486;9.640;2022-09-20T06:59:18;3.45;;;2.13;;
57778;SDS011;43608;49.486;9.640;2022-09-20T06:59:48;2.90;;;2.00;;
57778;SDS011;43608;49.486;9.640;2022-09-20T07:00:19;2.63;;;1.77;;
57778;SDS011;43608;49.486;9.640;2022-09-20T07:00:49;2.80;;;1.90;;
57778;SDS011;43608;49.486;9.640;2022-09-20T07:01:20;3.70;;;2.03;;
57778;SDS011;43608;49.486;9.640;2022-09-20T07:01:51;3.20;;;1.80;;
57778;SDS011;43608;49.486;9.640;2022-09-20T07:02:22;2.53;;;1.67;;
57778;SDS011;43608;49.486;9.640;2022-09-20T07:02:52;2.85;;;1.88;;
57778;SDS011;43608;49.486;9.640;2022-09-20T07:03:22;3.30;;;2.15;;
57778;SDS011;43608;49.486;9.640;2022-09-20T07:03:53;3.08;;;2.10;;
57778;SDS011;43608;49.486;9.640;2022-09-20T07:04:23;3.10;;;2.08;;
57778;SDS011;43608;49.486;9.640;2022-09-20T07:04:55;4.45;;;2.30;;
57778;SDS011;43608;49.486;9.640;2022-09-20T07:05:28;4.90;;;2.45;;
57778;SDS011;43608;49.486;9.640;2022-09-20T07:05:58;4.70;;;2.20;;
57778;SDS011;43608;49.486;9.640;2022-09-20T07:06:33;3.40;;;2.10;;
57778;SDS011;43608;49.486;9.640;2022-09-20T07:07:04;3.00;;;2.00;;
57778;SDS011;43608;49.486;9.640;2022-09-20T07:07:36;3.85;;;2.20;;
57778;SDS011;43608;49.486;9.640;2022-09-20T07:08:06;3.15;;;2.00;;
57778;SDS011;43608;49.486;9.640;2022-09-20T07:08:37;3.97;;;1.85;;